sensor_id;sensor_type;location;lat;lon;timestamp;P1;durP1;ratioP1;P2;durP2;ratioP2
16472;SDS011;8347;52.486;13.432;2023-04-06T00:00:11;9.18;;;5.38;;
16472;SDS011;8347;52.486;13.432;2023-04-06T00:02:58;8.40;;;5.72;;
16472;SDS011;8347;52.486;13.432;2023-04-06T00:05:46;8.57;;;5.75;;
16472;SDS011;8347;52.486;13.432;2023-04-06T00:08:34;10.35;;;6.15;;
16472;SDS011;8347;52.486;13.432;2023-04-06T00:11:20;10.00;;;6.55;;
16472;SDS011;8347;52.486;13.432;2023-04-06T00:14:07;8.20;;;5.82;;
16472;SDS011;8347;52.486;13.432;2023-04-06T00:16:54;10.73;;;5.82;;
16472;SDS011;8347;52.486;13.432;2023-04-06T00:19:41;7.97;;;5.55;;
16472;SDS011;8347;52.486;13.432;2023-04-06T00:22:27;9.45;;;5.45;;
16472;SDS011;8347;52.486;13.432;2023-04-06T00:25:14;6.53;;;4.88;;
16472;SDS011;8347;52.486;13.432;2023-04-06T00:28:01;10.25;;;5.90;;
16472;SDS011;8347;52.486;13.432;2023-04-06T00:30:48;7.57;;;5.47;;
16472;SDS011;8347;52.486;13.432;2023-04-06T00:33:35;9.45;;;4.63;;
16472;SDS011;8347;52.486;13.432;2023-04-06T00:36:22;8.02;;;4.78;;
16472;SDS011;8347;52.486;13.432;2023-04-06T00:39:09;7.78;;;5.50;;
16472;SDS011;8347;52.486;13.432;2023-04-06T00:41:55;6.57;;;4.65;;
16472;SDS011;8347;52.486;13.432;2023-04-06T00:44:43;6.93;;;4.90;;
16472;SDS011;8347;52.486;13.432;2023-04-06T00:47:30;11.25;;;5.10;;
16472;SDS011;8347;52.486;13.432;2023-04-06T00:50:16;7.68;;;5.07;;
16472;SDS011;8347;52.486;13.432;2023-04-06T00:53:03;8.13;;;4.47;;
16472;SDS011;8347;52.486;13.432;2023-04-06T00:55:50;10.80;;;5.00;;
16472;SDS011;8347;52.486;13.432;2023-04-06T00:58:37;8.07;;;4.95;;
16472;SDS011;8347;52.486;13.432;2023-04-06T01:01:26;9.48;;;4.82;;
16472;SDS011;8347;52.486;13.432;2023-04-06T01:04:16;7.82;;;4.85;;
16472;SDS011;8347;52.486;13.432;2023-04-06T01:07:03;8.32;;;4.55;;
16472;SDS011;8347;52.486;13.432;2023-04-06T01:09:59;6.80;;;4.70;;
16472;SDS011;8347;52.486;13.432;2023-04-06T01:12:48;8.15;;;5.57;;
16472;SDS011;8347;52.486;13.432;2023-04-06T01:15:42;6.07;;;4.95;;
16472;SDS011;8347;52.486;13.432;2023-04-06T01:18:33;6.55;;;5.15;;
16472;SDS011;8347;52.486;13.432;2023-04-06T01:21:32;9.32;;;5.22;;
16472;SDS011;8347;52.486;13.432;2023-04-06T01:24:39;10.30;;;5.25;;
16472;SDS011;8347;52.486;13.432;2023-04-06T01:27:40;9.30;;;4.90;;
16472;SDS011;8347;52.486;13.432;2023-04-06T01:31:03;7.00;;;4.65;;
16472;SDS011;8347;52.486;13.432;2023-04-06T01:34:01;8.70;;;7.78;;
16472;SDS011;8347;52.486;13.432;2023-04-06T01:36:48;7.53;;;4.75;;
16472;SDS011;8347;52.486;13.432;2023-04-06T01:39:42;7.72;;;4.13;;
16472;SDS011;8347;52.486;13.432;2023-04-06T01:42:32;10.15;;;4.90;;
16472;SDS011;8347;52.486;13.432;2023-04-06T01:45:18;6.82;;;4.25;;
16472;SDS011;8347;52.486;13.432;2023-04-06T01:48:07;7.00;;;4.50;;
16472;SDS011;8347;52.486;13.432;2023-04-06T01:50:54;8.45;;;4.60;;
16472;SDS011;8347;52.486;13.432;2023-04-06T01:53:46;9.90;;;5.18;;
16472;SDS011;8347;52.486;13.432;2023-04-06T01:56:34;6.45;;;4.82;;
16472;SDS011;8347;52.486;13.432;2023-04-06T01:59:35;8.77;;;5.13;;
16472;SDS011;8347;52.486;13.432;2023-04-06T02:02:27;6.97;;;4.68;;
16472;SDS011;8347;52.486;13.432;2023-04-06T02:05:24;8.88;;;4.63;;
16472;SDS011;8347;52.486;13.432;2023-04-06T02:08:13;7.03;;;4.75;;
16472;SDS011;8347;52.486;13.432;2023-04-06T02:11:00;11.32;;;5.75;;
16472;SDS011;8347;52.486;13.432;2023-04-06T02:13:55;7.93;;;4.95;;
16472;SDS011;8347;52.486;13.432;2023-04-06T02:16:45;7.15;;;4.38;;
16472;SDS011;8347;52.486;13.432;2023-04-06T02:19:31;6.82;;;4.63;;
16472;SDS011;8347;52.486;13.432;2023-04-06T02:22:18;5.75;;;4.57;;
16472;SDS011;8347;52.486;13.432;2023-04-06T02:25:05;8.13;;;4.30;;
16472;SDS011;8347;52.486;13.432;2023-04-06T02:27:52;11.98;;;5.40;;
16472;SDS011;8347;52.486;13.432;2023-04-06T02:30:39;6.88;;;4.50;;
16472;SDS011;8347;52.486;13.432;2023-04-06T02:33:25;7.57;;;5.10;;
16472;SDS011;8347;52.486;13.432;2023-04-06T02:36:12;7.03;;;5.40;;
16472;SDS011;8347;52.486;13.432;2023-04-06T02:38:58;8.05;;;4.65;;
16472;SDS011;8347;52.486;13.432;2023-04-06T02:41:45;6.80;;;5.32;;
16472;SDS011;8347;52.486;13.432;2023-04-06T02:44:34;6.68;;;4.65;;
16472;SDS011;8347;52.486;13.432;2023-04-06T02:47:22;7.20;;;4.85;;
16472;SDS011;8347;52.486;13.432;2023-04-06T02:50:10;6.07;;;4.53;;
16472;SDS011;8347;52.486;13.432;2023-04-06T02:53:04;7.57;;;4.82;;
16472;SDS011;8347;52.486;13.432;2023-04-06T02:55:51;9.55;;;5.35;;
16472;SDS011;8347;52.486;13.432;2023-04-06T02:58:38;6.82;;;4.35;;
16472;SDS011;8347;52.486;13.432;2023-04-06T03:01:24;6.70;;;4.85;;
16472;SDS011;8347;52.486;13.432;2023-04-06T03:04:16;9.43;;;6.05;;
16472;SDS011;8347;52.486;13.432;2023-04-06T03:07:02;8.40;;;5.95;;
16472;SDS011;8347;52.486;13.432;2023-04-06T03:09:54;10.98;;;6.93;;
16472;SDS011;8347;52.486;13.432;2023-04-06T03:12:41;10.20;;;7.00;;
16472;SDS011;8347;52.486;13.432;2023-04-06T03:15:36;8.98;;;6.45;;
16472;SDS011;8347;52.486;13.432;2023-04-06T03:18:32;9.40;;;6.65;;
16472;SDS011;8347;52.486;13.432;2023-04-06T03:21:18;11.57;;;6.78;;
16472;SDS011;8347;52.486;13.432;2023-04-06T03:24:08;9.00;;;6.80;;
16472;SDS011;8347;52.486;13.432;2023-04-06T03:26:54;9.77;;;7.05;;
16472;SDS011;8347;52.486;13.432;2023-04-06T03:29:41;11.85;;;8.05;;
16472;SDS011;8347;52.486;13.432;2023-04-06T03:32:32;8.63;;;7.50;;
16472;SDS011;8347;52.486;13.432;2023-04-06T03:35:18;11.38;;;8.35;;
16472;SDS011;8347;52.486;13.432;2023-04-06T03:38:05;12.18;;;8.55;;
16472;SDS011;8347;52.486;13.432;2023-04-06T03:40:51;12.73;;;8.75;;
16472;SDS011;8347;52.486;13.432;2023-04-06T03:43:42;11.27;;;8.52;;
16472;SDS011;8347;52.486;13.432;2023-04-06T03:46:29;9.68;;;7.88;;
16472;SDS011;8347;52.486;13.432;2023-04-06T03:49:17;13.13;;;7.95;;
16472;SDS011;8347;52.486;13.432;2023-04-06T03:52:08;8.95;;;7.25;;
16472;SDS011;8347;52.486;13.432;2023-04-06T03:54:54;10.35;;;7.68;;
16472;SDS011;8347;52.486;13.432;2023-04-06T03:57:41;10.02;;;7.15;;
16472;SDS011;8347;52.486;13.432;2023-04-06T04:00:27;11.18;;;7.75;;
16472;SDS011;8347;52.486;13.432;2023-04-06T04:03:14;10.57;;;7.93;;
16472;SDS011;8347;52.486;13.432;2023-04-06T04:06:01;12.38;;;8.70;;
16472;SDS011;8347;52.486;13.432;2023-04-06T04:08:48;11.57;;;8.75;;
16472;SDS011;8347;52.486;13.432;2023-04-06T04:11:35;11.25;;;7.90;;
16472;SDS011;8347;52.486;13.432;2023-04-06T04:14:22;15.63;;;9.35;;
16472;SDS011;8347;52.486;13.432;2023-04-06T04:17:08;12.07;;;8.25;;
16472;SDS011;8347;52.486;13.432;2023-04-06T04:19:55;12.55;;;7.47;;
16472;SDS011;8347;52.486;13.432;2023-04-06T04:22:41;13.23;;;8.13;;
16472;SDS011;8347;52.486;13.432;2023-04-06T04:25:28;11.70;;;8.27;;
16472;SDS011;8347;52.486;13.432;2023-04-06T04:28:15;13.23;;;7.88;;
16472;SDS011;8347;52.486;13.432;2023-04-06T04:31:03;10.02;;;7.45;;
16472;SDS011;8347;52.486;13.432;2023-04-06T04:33:52;10.38;;;8.38;;
16472;SDS011;8347;52.486;13.432;2023-04-06T04:36:45;10.98;;;8.23;;
16472;SDS011;8347;52.486;13.432;2023-04-06T04:39:39;13.95;;;7.63;;
16472;SDS011;8347;52.486;13.432;2023-04-06T04:42:26;11.45;;;7.70;;
16472;SDS011;8347;52.486;13.432;2023-04-06T04:45:16;9.93;;;7.00;;
16472;SDS011;8347;52.486;13.432;2023-04-06T04:48:03;12.02;;;7.65;;
16472;SDS011;8347;52.486;13.432;2023-04-06T04:50:58;15.45;;;7.18;;
16472;SDS011;8347;52.486;13.432;2023-04-06T04:53:49;13.07;;;8.10;;
16472;SDS011;8347;52.486;13.432;2023-04-06T04:56:41;12.77;;;7.43;;
16472;SDS011;8347;52.486;13.432;2023-04-06T04:59:38;12.10;;;8.10;;
16472;SDS011;8347;52.486;13.432;2023-04-06T05:02:35;12.23;;;8.10;;
16472;SDS011;8347;52.486;13.432;2023-04-06T05:05:33;9.88;;;7.30;;
16472;SDS011;8347;52.486;13.432;2023-04-06T05:08:20;10.82;;;7.63;;
16472;SDS011;8347;52.486;13.432;2023-04-06T05:11:08;11.80;;;7.72;;
16472;SDS011;8347;52.486;13.432;2023-04-06T05:13:59;9.93;;;7.50;;
16472;SDS011;8347;52.486;13.432;2023-04-06T05:16:46;14.50;;;7.93;;
16472;SDS011;8347;52.486;13.432;2023-04-06T05:19:33;11.48;;;7.70;;
16472;SDS011;8347;52.486;13.432;2023-04-06T05:22:20;11.68;;;7.07;;
16472;SDS011;8347;52.486;13.432;2023-04-06T05:25:14;11.65;;;7.45;;
16472;SDS011;8347;52.486;13.432;2023-04-06T05:28:01;12.63;;;8.13;;
16472;SDS011;8347;52.486;13.432;2023-04-06T05:30:51;10.88;;;7.47;;
16472;SDS011;8347;52.486;13.432;2023-04-06T05:33:39;12.00;;;7.18;;
16472;SDS011;8347;52.486;13.432;2023-04-06T05:36:29;10.10;;;6.63;;
16472;SDS011;8347;52.486;13.432;2023-04-06T05:39:16;11.65;;;6.57;;
16472;SDS011;8347;52.486;13.432;2023-04-06T05:42:07;9.43;;;6.63;;
16472;SDS011;8347;52.486;13.432;2023-04-06T05:45:15;11.57;;;6.65;;
16472;SDS011;8347;52.486;13.432;2023-04-06T05:48:10;13.05;;;7.25;;
16472;SDS011;8347;52.486;13.432;2023-04-06T05:50:57;9.75;;;6.25;;
16472;SDS011;8347;52.486;13.432;2023-04-06T05:53:50;10.70;;;5.47;;
16472;SDS011;8347;52.486;13.432;2023-04-06T05:56:37;13.50;;;6.15;;
16472;SDS011;8347;52.486;13.432;2023-04-06T05:59:25;9.90;;;6.57;;
16472;SDS011;8347;52.486;13.432;2023-04-06T06:02:13;8.75;;;6.30;;
16472;SDS011;8347;52.486;13.432;2023-04-06T06:05:03;9.30;;;6.13;;
16472;SDS011;8347;52.486;13.432;2023-04-06T06:07:50;8.27;;;6.55;;
16472;SDS011;8347;52.486;13.432;2023-04-06T06:10:37;6.72;;;5.28;;
16472;SDS011;8347;52.486;13.432;2023-04-06T06:13:26;11.10;;;6.22;;
16472;SDS011;8347;52.486;13.432;2023-04-06T06:16:13;9.57;;;5.43;;
16472;SDS011;8347;52.486;13.432;2023-04-06T06:19:04;9.10;;;5.75;;
16472;SDS011;8347;52.486;13.432;2023-04-06T06:21:51;9.80;;;5.20;;
16472;SDS011;8347;52.486;13.432;2023-04-06T06:24:38;6.40;;;4.45;;
16472;SDS011;8347;52.486;13.432;2023-04-06T06:27:25;6.30;;;4.95;;
16472;SDS011;8347;52.486;13.432;2023-04-06T06:30:12;6.03;;;5.18;;
16472;SDS011;8347;52.486;13.432;2023-04-06T06:33:01;9.15;;;5.30;;
16472;SDS011;8347;52.486;13.432;2023-04-06T06:35:49;7.68;;;5.80;;
16472;SDS011;8347;52.486;13.432;2023-04-06T06:38:36;11.23;;;5.80;;
16472;SDS011;8347;52.486;13.432;2023-04-06T06:41:25;10.52;;;5.85;;
16472;SDS011;8347;52.486;13.432;2023-04-06T06:44:12;12.32;;;5.95;;
16472;SDS011;8347;52.486;13.432;2023-04-06T06:46:59;8.52;;;5.05;;
16472;SDS011;8347;52.486;13.432;2023-04-06T06:49:47;10.35;;;5.00;;
16472;SDS011;8347;52.486;13.432;2023-04-06T06:52:34;10.48;;;5.30;;
16472;SDS011;8347;52.486;13.432;2023-04-06T06:55:20;11.45;;;5.25;;
16472;SDS011;8347;52.486;13.432;2023-04-06T06:58:07;10.65;;;5.80;;
16472;SDS011;8347;52.486;13.432;2023-04-06T07:01:00;6.80;;;4.93;;
16472;SDS011;8347;52.486;13.432;2023-04-06T07:03:48;7.18;;;4.55;;
16472;SDS011;8347;52.486;13.432;2023-04-06T07:06:35;5.72;;;4.68;;
16472;SDS011;8347;52.486;13.432;2023-04-06T07:09:22;10.45;;;5.13;;
16472;SDS011;8347;52.486;13.432;2023-04-06T07:12:09;12.82;;;5.38;;
16472;SDS011;8347;52.486;13.432;2023-04-06T07:14:56;8.57;;;5.38;;
16472;SDS011;8347;52.486;13.432;2023-04-06T07:17:42;8.38;;;5.57;;
16472;SDS011;8347;52.486;13.432;2023-04-06T07:20:31;12.75;;;5.45;;
16472;SDS011;8347;52.486;13.432;2023-04-06T07:23:17;8.57;;;5.30;;
16472;SDS011;8347;52.486;13.432;2023-04-06T07:26:04;7.38;;;5.35;;
16472;SDS011;8347;52.486;13.432;2023-04-06T07:28:52;6.97;;;4.50;;
16472;SDS011;8347;52.486;13.432;2023-04-06T07:31:39;7.35;;;4.38;;
16472;SDS011;8347;52.486;13.432;2023-04-06T07:34:26;9.02;;;3.92;;
16472;SDS011;8347;52.486;13.432;2023-04-06T07:37:12;5.45;;;4.18;;
16472;SDS011;8347;52.486;13.432;2023-04-06T07:39:59;7.90;;;4.85;;
16472;SDS011;8347;52.486;13.432;2023-04-06T07:42:47;5.85;;;4.28;;
16472;SDS011;8347;52.486;13.432;2023-04-06T07:45:33;5.30;;;3.65;;
16472;SDS011;8347;52.486;13.432;2023-04-06T07:48:21;9.82;;;4.20;;
16472;SDS011;8347;52.486;13.432;2023-04-06T07:51:07;9.63;;;4.10;;
16472;SDS011;8347;52.486;13.432;2023-04-06T07:53:59;6.97;;;3.42;;
16472;SDS011;8347;52.486;13.432;2023-04-06T07:56:46;6.65;;;3.53;;
16472;SDS011;8347;52.486;13.432;2023-04-06T07:59:32;9.05;;;4.43;;
16472;SDS011;8347;52.486;13.432;2023-04-06T08:02:19;8.18;;;4.43;;
16472;SDS011;8347;52.486;13.432;2023-04-06T08:05:07;7.00;;;3.95;;
16472;SDS011;8347;52.486;13.432;2023-04-06T08:07:53;8.32;;;4.32;;
16472;SDS011;8347;52.486;13.432;2023-04-06T08:10:40;6.20;;;3.72;;
16472;SDS011;8347;52.486;13.432;2023-04-06T08:13:26;9.23;;;3.95;;
16472;SDS011;8347;52.486;13.432;2023-04-06T08:16:14;7.70;;;4.32;;
16472;SDS011;8347;52.486;13.432;2023-04-06T08:19:00;7.90;;;4.30;;
16472;SDS011;8347;52.486;13.432;2023-04-06T08:21:47;7.75;;;3.60;;
16472;SDS011;8347;52.486;13.432;2023-04-06T08:24:34;7.57;;;3.35;;
16472;SDS011;8347;52.486;13.432;2023-04-06T08:27:21;4.60;;;3.30;;
16472;SDS011;8347;52.486;13.432;2023-04-06T08:30:07;6.53;;;3.45;;
16472;SDS011;8347;52.486;13.432;2023-04-06T08:32:54;26.23;;;5.68;;
16472;SDS011;8347;52.486;13.432;2023-04-06T08:35:41;9.65;;;4.63;;
16472;SDS011;8347;52.486;13.432;2023-04-06T08:38:27;5.47;;;3.13;;
16472;SDS011;8347;52.486;13.432;2023-04-06T08:41:14;6.63;;;3.58;;
16472;SDS011;8347;52.486;13.432;2023-04-06T08:44:02;7.78;;;3.60;;
16472;SDS011;8347;52.486;13.432;2023-04-06T08:46:50;8.52;;;3.08;;
16472;SDS011;8347;52.486;13.432;2023-04-06T08:49:38;6.55;;;2.90;;
16472;SDS011;8347;52.486;13.432;2023-04-06T08:52:25;14.18;;;7.13;;
16472;SDS011;8347;52.486;13.432;2023-04-06T08:55:11;9.70;;;4.43;;
16472;SDS011;8347;52.486;13.432;2023-04-06T08:57:58;5.75;;;2.95;;
16472;SDS011;8347;52.486;13.432;2023-04-06T09:00:45;5.93;;;2.88;;
16472;SDS011;8347;52.486;13.432;2023-04-06T09:03:32;6.00;;;2.63;;
16472;SDS011;8347;52.486;13.432;2023-04-06T09:06:19;5.68;;;2.22;;
16472;SDS011;8347;52.486;13.432;2023-04-06T09:09:07;4.47;;;2.03;;
16472;SDS011;8347;52.486;13.432;2023-04-06T09:11:53;5.93;;;2.30;;
16472;SDS011;8347;52.486;13.432;2023-04-06T09:14:41;3.92;;;2.13;;
16472;SDS011;8347;52.486;13.432;2023-04-06T09:17:32;2.35;;;1.92;;
16472;SDS011;8347;52.486;13.432;2023-04-06T09:20:23;5.28;;;2.35;;
16472;SDS011;8347;52.486;13.432;2023-04-06T09:23:18;5.70;;;2.58;;
16472;SDS011;8347;52.486;13.432;2023-04-06T09:26:09;3.90;;;2.50;;
16472;SDS011;8347;52.486;13.432;2023-04-06T09:28:58;4.22;;;2.65;;
16472;SDS011;8347;52.486;13.432;2023-04-06T09:31:47;4.97;;;2.85;;
16472;SDS011;8347;52.486;13.432;2023-04-06T09:34:33;3.72;;;2.55;;
16472;SDS011;8347;52.486;13.432;2023-04-06T09:37:20;4.25;;;2.72;;
16472;SDS011;8347;52.486;13.432;2023-04-06T09:40:07;5.18;;;2.00;;
16472;SDS011;8347;52.486;13.432;2023-04-06T09:42:56;3.80;;;2.10;;
16472;SDS011;8347;52.486;13.432;2023-04-06T09:45:44;3.28;;;2.33;;
16472;SDS011;8347;52.486;13.432;2023-04-06T09:48:34;2.83;;;2.38;;
16472;SDS011;8347;52.486;13.432;2023-04-06T09:51:21;3.65;;;1.95;;
16472;SDS011;8347;52.486;13.432;2023-04-06T09:54:08;5.85;;;2.20;;
16472;SDS011;8347;52.486;13.432;2023-04-06T10:03:07;7.07;;;2.15;;
16472;SDS011;8347;52.486;13.432;2023-04-06T10:06:00;2.72;;;1.90;;
16472;SDS011;8347;52.486;13.432;2023-04-06T10:08:50;3.30;;;1.85;;
16472;SDS011;8347;52.486;13.432;2023-04-06T10:11:40;2.70;;;1.52;;
16472;SDS011;8347;52.486;13.432;2023-04-06T10:14:27;4.68;;;2.45;;
16472;SDS011;8347;52.486;13.432;2023-04-06T10:17:13;2.40;;;1.60;;
16472;SDS011;8347;52.486;13.432;2023-04-06T10:20:02;3.90;;;2.10;;
16472;SDS011;8347;52.486;13.432;2023-04-06T10:22:55;1.95;;;1.50;;
16472;SDS011;8347;52.486;13.432;2023-04-06T10:25:56;3.30;;;1.45;;
16472;SDS011;8347;52.486;13.432;2023-04-06T10:28:45;2.60;;;2.03;;
16472;SDS011;8347;52.486;13.432;2023-04-06T10:31:32;4.65;;;1.90;;
16472;SDS011;8347;52.486;13.432;2023-04-06T10:34:18;2.20;;;1.77;;
16472;SDS011;8347;52.486;13.432;2023-04-06T10:37:14;2.85;;;1.70;;
16472;SDS011;8347;52.486;13.432;2023-04-06T10:40:01;5.85;;;2.15;;
16472;SDS011;8347;52.486;13.432;2023-04-06T10:42:48;4.07;;;1.85;;
16472;SDS011;8347;52.486;13.432;2023-04-06T10:45:34;1.98;;;1.70;;
16472;SDS011;8347;52.486;13.432;2023-04-06T10:48:22;2.83;;;1.80;;
16472;SDS011;8347;52.486;13.432;2023-04-06T10:51:10;3.63;;;1.80;;
16472;SDS011;8347;52.486;13.432;2023-04-06T10:53:57;3.70;;;2.42;;
16472;SDS011;8347;52.486;13.432;2023-04-06T10:56:45;4.10;;;2.55;;
16472;SDS011;8347;52.486;13.432;2023-04-06T10:59:31;2.95;;;1.83;;
16472;SDS011;8347;52.486;13.432;2023-04-06T11:02:21;4.07;;;2.10;;
16472;SDS011;8347;52.486;13.432;2023-04-06T11:05:08;4.18;;;2.40;;
16472;SDS011;8347;52.486;13.432;2023-04-06T11:07:57;5.40;;;2.28;;
16472;SDS011;8347;52.486;13.432;2023-04-06T11:10:44;3.60;;;2.00;;
16472;SDS011;8347;52.486;13.432;2023-04-06T11:13:37;2.50;;;1.60;;
16472;SDS011;8347;52.486;13.432;2023-04-06T11:16:25;2.67;;;1.67;;
16472;SDS011;8347;52.486;13.432;2023-04-06T11:19:11;7.00;;;2.67;;
16472;SDS011;8347;52.486;13.432;2023-04-06T11:22:05;5.18;;;2.95;;
16472;SDS011;8347;52.486;13.432;2023-04-06T11:24:52;2.90;;;1.70;;
16472;SDS011;8347;52.486;13.432;2023-04-06T11:27:39;2.88;;;2.05;;
16472;SDS011;8347;52.486;13.432;2023-04-06T11:30:26;5.20;;;1.52;;
16472;SDS011;8347;52.486;13.432;2023-04-06T11:33:19;4.18;;;2.08;;
16472;SDS011;8347;52.486;13.432;2023-04-06T11:36:07;1.90;;;1.45;;
16472;SDS011;8347;52.486;13.432;2023-04-06T11:38:53;3.95;;;2.03;;
16472;SDS011;8347;52.486;13.432;2023-04-06T11:41:40;2.70;;;1.50;;
16472;SDS011;8347;52.486;13.432;2023-04-06T11:44:28;2.58;;;1.75;;
16472;SDS011;8347;52.486;13.432;2023-04-06T11:47:19;3.25;;;1.90;;
16472;SDS011;8347;52.486;13.432;2023-04-06T11:50:09;3.45;;;1.83;;
16472;SDS011;8347;52.486;13.432;2023-04-06T11:52:58;4.28;;;1.90;;
16472;SDS011;8347;52.486;13.432;2023-04-06T11:55:46;2.08;;;1.80;;
16472;SDS011;8347;52.486;13.432;2023-04-06T11:58:33;3.15;;;2.00;;
16472;SDS011;8347;52.486;13.432;2023-04-06T12:01:19;2.78;;;1.70;;
16472;SDS011;8347;52.486;13.432;2023-04-06T12:04:05;4.20;;;2.70;;
16472;SDS011;8347;52.486;13.432;2023-04-06T12:06:52;6.03;;;2.45;;
16472;SDS011;8347;52.486;13.432;2023-04-06T12:09:38;2.28;;;1.70;;
16472;SDS011;8347;52.486;13.432;2023-04-06T12:12:25;5.50;;;3.35;;
16472;SDS011;8347;52.486;13.432;2023-04-06T12:15:12;3.45;;;2.20;;
16472;SDS011;8347;52.486;13.432;2023-04-06T12:17:58;2.50;;;1.67;;
16472;SDS011;8347;52.486;13.432;2023-04-06T12:20:45;3.70;;;2.00;;
16472;SDS011;8347;52.486;13.432;2023-04-06T12:23:31;2.03;;;1.83;;
16472;SDS011;8347;52.486;13.432;2023-04-06T12:26:18;5.93;;;2.28;;
16472;SDS011;8347;52.486;13.432;2023-04-06T12:29:05;3.20;;;2.22;;
16472;SDS011;8347;52.486;13.432;2023-04-06T12:31:54;4.75;;;1.98;;
16472;SDS011;8347;52.486;13.432;2023-04-06T12:34:41;2.95;;;2.10;;
16472;SDS011;8347;52.486;13.432;2023-04-06T12:37:28;4.10;;;1.77;;
16472;SDS011;8347;52.486;13.432;2023-04-06T12:40:15;5.03;;;2.15;;
16472;SDS011;8347;52.486;13.432;2023-04-06T12:43:01;3.65;;;1.83;;
16472;SDS011;8347;52.486;13.432;2023-04-06T12:45:48;3.92;;;2.22;;
16472;SDS011;8347;52.486;13.432;2023-04-06T12:48:34;4.07;;;2.67;;
16472;SDS011;8347;52.486;13.432;2023-04-06T12:51:22;3.30;;;2.00;;
16472;SDS011;8347;52.486;13.432;2023-04-06T12:54:08;3.40;;;1.98;;
16472;SDS011;8347;52.486;13.432;2023-04-06T12:56:55;3.60;;;2.25;;
16472;SDS011;8347;52.486;13.432;2023-04-06T12:59:45;2.60;;;2.28;;
16472;SDS011;8347;52.486;13.432;2023-04-06T13:02:32;2.72;;;2.25;;
16472;SDS011;8347;52.486;13.432;2023-04-06T13:05:19;4.05;;;2.33;;
16472;SDS011;8347;52.486;13.432;2023-04-06T13:08:06;3.13;;;2.35;;
16472;SDS011;8347;52.486;13.432;2023-04-06T13:10:52;4.88;;;2.38;;
16472;SDS011;8347;52.486;13.432;2023-04-06T13:13:40;2.25;;;1.98;;
16472;SDS011;8347;52.486;13.432;2023-04-06T13:16:27;6.22;;;2.70;;
16472;SDS011;8347;52.486;13.432;2023-04-06T13:19:13;3.97;;;2.38;;
16472;SDS011;8347;52.486;13.432;2023-04-06T13:22:00;6.55;;;3.42;;
16472;SDS011;8347;52.486;13.432;2023-04-06T13:24:47;5.97;;;3.00;;
16472;SDS011;8347;52.486;13.432;2023-04-06T13:27:33;6.22;;;2.83;;
16472;SDS011;8347;52.486;13.432;2023-04-06T13:30:21;5.18;;;2.03;;
16472;SDS011;8347;52.486;13.432;2023-04-06T13:33:08;5.47;;;2.53;;
16472;SDS011;8347;52.486;13.432;2023-04-06T13:35:54;4.07;;;1.88;;
16472;SDS011;8347;52.486;13.432;2023-04-06T13:38:41;7.20;;;3.00;;
16472;SDS011;8347;52.486;13.432;2023-04-06T13:41:28;3.75;;;2.67;;
16472;SDS011;8347;52.486;13.432;2023-04-06T13:44:15;6.85;;;1.90;;
16472;SDS011;8347;52.486;13.432;2023-04-06T13:47:01;8.35;;;2.95;;
16472;SDS011;8347;52.486;13.432;2023-04-06T13:49:49;5.82;;;2.05;;
16472;SDS011;8347;52.486;13.432;2023-04-06T13:52:37;4.30;;;2.03;;
16472;SDS011;8347;52.486;13.432;2023-04-06T13:55:23;2.10;;;1.58;;
16472;SDS011;8347;52.486;13.432;2023-04-06T13:58:11;2.63;;;1.77;;
16472;SDS011;8347;52.486;13.432;2023-04-06T14:01:05;6.45;;;1.90;;
16472;SDS011;8347;52.486;13.432;2023-04-06T14:03:52;4.85;;;2.25;;
16472;SDS011;8347;52.486;13.432;2023-04-06T14:06:39;4.40;;;1.80;;
16472;SDS011;8347;52.486;13.432;2023-04-06T14:09:26;3.78;;;1.45;;
16472;SDS011;8347;52.486;13.432;2023-04-06T14:12:12;8.20;;;3.28;;
16472;SDS011;8347;52.486;13.432;2023-04-06T14:14:59;4.05;;;1.83;;
16472;SDS011;8347;52.486;13.432;2023-04-06T14:17:48;2.17;;;1.77;;
16472;SDS011;8347;52.486;13.432;2023-04-06T14:20:34;3.28;;;1.83;;
16472;SDS011;8347;52.486;13.432;2023-04-06T14:23:21;6.32;;;2.10;;
16472;SDS011;8347;52.486;13.432;2023-04-06T14:26:08;3.70;;;1.70;;
16472;SDS011;8347;52.486;13.432;2023-04-06T14:28:56;5.53;;;2.50;;
16472;SDS011;8347;52.486;13.432;2023-04-06T14:31:42;4.30;;;1.80;;
16472;SDS011;8347;52.486;13.432;2023-04-06T14:34:29;2.35;;;1.92;;
16472;SDS011;8347;52.486;13.432;2023-04-06T14:37:15;2.10;;;1.95;;
16472;SDS011;8347;52.486;13.432;2023-04-06T14:40:03;3.60;;;2.05;;
16472;SDS011;8347;52.486;13.432;2023-04-06T14:42:50;2.85;;;1.70;;
16472;SDS011;8347;52.486;13.432;2023-04-06T14:45:37;2.78;;;2.13;;
16472;SDS011;8347;52.486;13.432;2023-04-06T14:48:24;4.07;;;1.95;;
16472;SDS011;8347;52.486;13.432;2023-04-06T14:51:11;2.75;;;1.80;;
16472;SDS011;8347;52.486;13.432;2023-04-06T14:53:58;2.45;;;2.10;;
16472;SDS011;8347;52.486;13.432;2023-04-06T14:56:46;3.47;;;2.30;;
16472;SDS011;8347;52.486;13.432;2023-04-06T14:59:32;3.97;;;1.90;;
16472;SDS011;8347;52.486;13.432;2023-04-06T15:02:19;4.07;;;2.42;;
16472;SDS011;8347;52.486;13.432;2023-04-06T15:05:06;4.55;;;2.33;;
16472;SDS011;8347;52.486;13.432;2023-04-06T15:07:52;3.92;;;2.13;;
16472;SDS011;8347;52.486;13.432;2023-04-06T15:10:39;3.15;;;1.98;;
16472;SDS011;8347;52.486;13.432;2023-04-06T15:13:27;3.80;;;2.20;;
16472;SDS011;8347;52.486;13.432;2023-04-06T15:16:13;2.63;;;1.80;;
16472;SDS011;8347;52.486;13.432;2023-04-06T15:19:00;4.65;;;2.35;;
16472;SDS011;8347;52.486;13.432;2023-04-06T15:21:47;6.55;;;2.15;;
16472;SDS011;8347;52.486;13.432;2023-04-06T15:24:33;2.45;;;1.90;;
16472;SDS011;8347;52.486;13.432;2023-04-06T15:27:20;3.38;;;2.00;;
16472;SDS011;8347;52.486;13.432;2023-04-06T15:30:06;2.85;;;2.20;;
16472;SDS011;8347;52.486;13.432;2023-04-06T15:32:59;3.22;;;1.90;;
16472;SDS011;8347;52.486;13.432;2023-04-06T15:35:46;3.17;;;2.10;;
16472;SDS011;8347;52.486;13.432;2023-04-06T15:38:33;6.13;;;2.67;;
16472;SDS011;8347;52.486;13.432;2023-04-06T15:41:20;3.17;;;1.80;;
16472;SDS011;8347;52.486;13.432;2023-04-06T15:44:06;6.60;;;2.50;;
16472;SDS011;8347;52.486;13.432;2023-04-06T15:46:53;5.63;;;2.38;;
16472;SDS011;8347;52.486;13.432;2023-04-06T15:49:40;5.18;;;2.80;;
16472;SDS011;8347;52.486;13.432;2023-04-06T15:52:26;4.53;;;2.67;;
16472;SDS011;8347;52.486;13.432;2023-04-06T15:55:13;3.58;;;2.45;;
16472;SDS011;8347;52.486;13.432;2023-04-06T15:57:59;7.57;;;3.42;;
16472;SDS011;8347;52.486;13.432;2023-04-06T16:00:46;2.60;;;2.05;;
16472;SDS011;8347;52.486;13.432;2023-04-06T16:03:32;3.13;;;2.13;;
16472;SDS011;8347;52.486;13.432;2023-04-06T16:06:19;3.35;;;2.17;;
16472;SDS011;8347;52.486;13.432;2023-04-06T16:09:05;4.72;;;2.63;;
16472;SDS011;8347;52.486;13.432;2023-04-06T16:11:52;4.05;;;2.10;;
16472;SDS011;8347;52.486;13.432;2023-04-06T16:14:39;3.60;;;2.63;;
16472;SDS011;8347;52.486;13.432;2023-04-06T16:17:26;2.13;;;1.75;;
16472;SDS011;8347;52.486;13.432;2023-04-06T16:20:12;2.88;;;1.92;;
16472;SDS011;8347;52.486;13.432;2023-04-06T16:23:00;3.70;;;1.98;;
16472;SDS011;8347;52.486;13.432;2023-04-06T16:25:47;4.40;;;2.10;;
16472;SDS011;8347;52.486;13.432;2023-04-06T16:28:35;5.47;;;2.20;;
16472;SDS011;8347;52.486;13.432;2023-04-06T16:31:22;4.03;;;1.77;;
16472;SDS011;8347;52.486;13.432;2023-04-06T16:34:09;4.53;;;2.17;;
16472;SDS011;8347;52.486;13.432;2023-04-06T16:36:56;3.97;;;2.00;;
16472;SDS011;8347;52.486;13.432;2023-04-06T16:39:42;3.83;;;2.28;;
16472;SDS011;8347;52.486;13.432;2023-04-06T16:42:29;2.72;;;2.13;;
16472;SDS011;8347;52.486;13.432;2023-04-06T16:45:16;3.67;;;2.33;;
16472;SDS011;8347;52.486;13.432;2023-04-06T16:48:02;2.55;;;1.88;;
16472;SDS011;8347;52.486;13.432;2023-04-06T16:50:50;3.22;;;1.90;;
16472;SDS011;8347;52.486;13.432;2023-04-06T16:53:37;3.72;;;2.10;;
16472;SDS011;8347;52.486;13.432;2023-04-06T16:56:24;2.20;;;1.77;;